Time;durP1;ratioP1;P1;durP2;ratioP2;P2;SDS_P1;SDS_P2;PMS_P1;PMS_P2;Temp;Humidity;BMP_temperature;BMP_pressure;BME280_temperature;BME280_humidity;BME280_pressure;Samples;Min_cycle;Max_cycle;Signal;HPM_P1;HPM_P2
2023/06/01 00:00:34;;;;;;;7.15;4.50;;;;;;;9.26;100.00;93185.50;2559008;23;20360;-86
2023/06/01 00:01:43;;;;;;;7.30;4.68;;;;;;;9.19;100.00;93181.03;2571813;22;20000;-85
2023/06/01 00:02:53;;;;;;;7.32;5.05;;;;;;;9.06;100.00;93180.09;2582288;22;20014;-85
2023/06/01 00:04:02;;;;;;;5.10;4.60;;;;;;;9.24;100.00;93177.91;2570036;23;20060;-85
2023/06/01 00:05:12;;;;;;;8.68;4.78;;;;;;;9.15;100.00;93177.66;2582882;22;20004;-83
2023/06/01 00:06:22;;;;;;;7.68;4.95;;;;;;;8.96;100.00;93181.00;2570147;23;20001;-85
2023/06/01 00:07:32;;;;;;;7.03;4.68;;;;;;;9.03;100.00;93178.22;2559781;23;20013;-85
2023/06/01 00:08:39;;;;;;;;;;;;;;;9.03;100.00;93178.97;2560075;23;20511;-84
2023/06/01 00:09:50;;;;;;;6.03;4.55;;;;;;;8.98;100.00;93181.34;2558286;23;20351;-85
2023/06/01 00:10:56;;;;;;;6.38;4.47;;;;;;;8.93;100.00;93179.16;2570157;23;20036;-85
2023/06/01 00:12:08;;;;;;;6.75;4.97;;;;;;;9.11;100.00;93174.28;2570453;22;20039;-89
2023/06/01 00:13:18;;;;;;;7.05;4.80;;;;;;;9.04;100.00;93175.16;2570861;23;20031;-85
2023/06/01 00:14:27;;;;;;;5.50;4.53;;;;;;;8.96;100.00;93173.00;2571967;22;20004;-85
2023/06/01 00:15:36;;;;;;;5.55;4.53;;;;;;;8.94;100.00;93186.72;2569906;23;20318;-85
2023/06/01 00:16:46;;;;;;;13.98;5.00;;;;;;;9.06;100.00;93172.09;2571854;22;20495;-85
2023/06/01 00:18:00;;;;;;;6.60;4.68;;;;;;;8.97;100.00;93172.59;2570221;23;20083;-83
2023/06/01 00:19:11;;;;;;;7.85;4.75;;;;;;;8.95;100.00;93168.81;2573955;22;20496;-86
2023/06/01 00:20:23;;;;;;;8.10;4.85;;;;;;;9.01;100.00;93170.63;2582754;22;20008;-85
2023/06/01 00:21:35;;;;;;;6.38;4.55;;;;;;;8.97;100.00;93172.59;2570617;23;20039;-86
2023/06/01 00:22:46;;;;;;;7.10;5.18;;;;;;;8.98;100.00;93165.34;2559674;23;20060;-85
2023/06/01 00:23:56;;;;;;;6.85;4.95;;;;;;;8.89;100.00;93173.84;2572307;22;20005;-85
2023/06/01 00:25:05;;;;;;;;;;;;;;;8.82;100.00;93173.94;2570597;23;20004;-86
2023/06/01 00:26:15;;;;;;;11.73;5.10;;;;;;;8.80;100.00;93170.94;2571713;22;19915;-84
2023/06/01 00:27:25;;;;;;;10.00;5.18;;;;;;;8.88;100.00;93171.59;2582374;22;20144;-85
2023/06/01 00:28:37;;;;;;;6.10;5.10;;;;;;;8.77;100.00;93175.16;2580374;23;20014;-84
2023/06/01 00:29:47;;;;;;;7.85;4.65;;;;;;;8.77;100.00;93171.75;2572561;22;20084;-84
2023/06/01 00:30:55;;;;;;;9.52;4.72;;;;;;;8.87;100.00;93176.19;2580326;22;20007;-85
2023/06/01 00:32:08;;;;;;;7.43;4.97;;;;;;;8.84;100.00;93168.97;2582740;22;20036;-86
2023/06/01 00:33:18;;;;;;;7.03;4.60;;;;;;;8.80;100.00;93174.38;2570237;23;20459;-86
2023/06/01 00:34:27;;;;;;;10.05;5.15;;;;;;;8.67;100.00;93165.41;2583174;22;20036;-86
2023/06/01 00:35:35;;;;;;;5.40;4.53;;;;;;;8.72;100.00;93170.28;2569875;23;20395;-86
2023/06/01 00:36:45;;;;;;;10.85;5.05;;;;;;;8.65;100.00;93170.41;2571204;22;20015;-87
2023/06/01 00:37:57;;;;;;;7.38;5.40;;;;;;;8.69;100.00;93165.78;2582356;22;20010;-86
2023/06/01 00:39:09;;;;;;;8.68;5.15;;;;;;;8.67;100.00;93160.06;2583287;22;20008;-83
2023/06/01 00:40:18;;;;;;;7.28;5.00;;;;;;;8.62;100.00;93165.13;2580700;23;20336;-85
2023/06/01 00:41:28;;;;;;;6.60;4.93;;;;;;;8.64;100.00;93162.78;2571790;22;20038;-82
2023/06/01 00:42:38;;;;;;;6.47;4.97;;;;;;;8.67;100.00;93164.66;2582803;22;20071;-87
2023/06/01 00:43:48;;;;;;;6.68;4.93;;;;;;;8.48;100.00;93161.47;2570068;23;20001;-87
2023/06/01 00:44:58;;;;;;;7.03;5.28;;;;;;;8.46;100.00;93160.38;2571728;22;20081;-84
2023/06/01 00:46:09;;;;;;;8.48;4.70;;;;;;;8.53;100.00;93165.59;2582978;22;20035;-86
2023/06/01 00:47:19;;;;;;;10.20;5.32;;;;;;;8.52;100.00;93159.53;2569640;23;20151;-84
2023/06/01 00:48:29;;;;;;;5.82;4.38;;;;;;;8.54;100.00;93165.19;2559157;23;20020;-85
2023/06/01 00:49:39;;;;;;;7.25;5.15;;;;;;;8.48;100.00;93164.16;2572215;22;20042;-84
2023/06/01 00:50:49;;;;;;;8.15;5.00;;;;;;;8.57;100.00;93164.41;2569724;23;20383;-86
2023/06/01 00:51:59;;;;;;;6.90;5.30;;;;;;;8.52;100.00;93164.09;2582576;22;20019;-86
2023/06/01 00:53:09;;;;;;;7.30;5.10;;;;;;;8.44;100.00;93166.09;2582764;22;20080;-85
2023/06/01 00:54:17;;;;;;;7.85;4.97;;;;;;;8.50;100.00;93164.50;2580759;23;20406;-84
2023/06/01 00:55:26;;;;;;;6.63;5.38;;;;;;;8.57;100.00;93163.66;2571023;22;20336;-88
2023/06/01 00:56:37;;;;;;;7.50;5.07;;;;;;;8.56;100.00;93156.81;2569792;23;20414;-87
2023/06/01 00:57:47;;;;;;;10.02;5.22;;;;;;;8.51;100.00;93157.25;2582720;22;20011;-84
2023/06/01 00:58:54;;;;;;;7.35;5.35;;;;;;;8.50;100.00;93163.72;2582621;22;20004;-84
2023/06/01 01:00:09;;;;;;;11.57;5.82;;;;;;;8.45;100.00;93154.28;2580457;23;20360;-85
2023/06/01 01:01:25;;;;;;;7.72;5.22;;;;;;;8.45;100.00;93158.84;2561629;23;20413;-87
2023/06/01 01:02:37;;;;;;;7.03;5.00;;;;;;;8.44;100.00;93162.69;2562600;23;20019;-87
2023/06/01 01:03:46;;;;;;;6.05;4.90;;;;;;;8.40;100.00;93157.41;2560246;23;20443;-85
2023/06/01 01:04:55;;;;;;;8.43;5.70;;;;;;;8.49;100.00;93151.56;2559542;23;20044;-84
2023/06/01 01:06:17;;;;;;;8.90;5.28;;;;;;;8.48;100.00;93156.16;2559136;23;20004;-84
2023/06/01 01:08:06;;;;;;;9.95;5.40;;;;;;;8.48;100.00;93158.81;2576569;22;20011;-84
2023/06/01 01:09:51;;;;;;;7.28;4.90;;;;;;;8.35;100.00;93152.50;2545037;23;20009;-85
2023/06/01 01:11:01;;;;;;;8.35;5.15;;;;;;;8.44;100.00;93152.03;2552880;22;20470;-87
2023/06/01 01:12:23;;;;;;;7.88;4.82;;;;;;;8.42;100.00;93159.66;2580748;22;20026;-86
2023/06/01 01:13:44;;;;;;;8.68;5.55;;;;;;;8.45;100.00;93154.28;2564169;23;20030;-87
2023/06/01 01:15:16;;;;;;;7.07;5.22;;;;;;;8.39;100.00;93155.16;2576662;22;20015;-84
2023/06/01 01:16:36;;;;;;;8.60;5.70;;;;;;;8.31;100.00;93155.19;2580777;23;20030;-85
2023/06/01 01:17:46;;;;;;;6.03;5.43;;;;;;;8.26;100.00;93150.31;2572184;23;20095;-84
2023/06/01 01:19:24;;;;;;;10.73;5.25;;;;;;;8.22;100.00;93164.84;2559416;23;20011;-84
2023/06/01 01:20:36;;;;;;;6.90;4.97;;;;;;;8.18;100.00;93158.78;2583093;22;20069;-85
2023/06/01 01:21:50;;;;;;;9.98;5.78;;;;;;;8.23;100.00;93158.34;2570219;23;20095;-84
2023/06/01 01:23:19;;;;;;;6.65;4.93;;;;;;;8.27;100.00;93164.38;2560718;23;20088;-85
2023/06/01 01:24:58;;;;;;;6.43;4.85;;;;;;;8.40;100.00;93152.06;2579757;22;20449;-86
2023/06/01 01:26:17;;;;;;;10.73;5.65;;;;;;;8.26;100.00;93154.91;2547373;23;20006;-85
2023/06/01 01:27:47;;;;;;;9.73;4.93;;;;;;;8.23;100.00;93155.69;2551724;23;20500;-87
2023/06/01 01:28:52;;;;;;;;;;;;;;;8.29;100.00;93159.41;2568056;23;20441;-85
2023/06/01 01:30:06;;;;;;;7.18;5.15;;;;;;;8.32;100.00;93155.94;2568937;23;20263;-85
2023/06/01 01:31:16;;;;;;;7.47;5.03;;;;;;;8.26;100.00;93160.97;2560433;23;20456;-85
2023/06/01 01:32:26;;;;;;;13.93;4.97;;;;;;;8.14;100.00;93158.81;2571727;22;20340;-85
2023/06/01 01:33:33;;;;;;;7.18;5.70;;;;;;;8.10;100.00;93155.44;2582482;22;20083;-86
2023/06/01 01:34:39;;;;;;;10.45;5.50;;;;;;;8.05;100.00;93154.00;2581927;22;20463;-83
2023/06/01 01:36:21;;;;;;;8.65;5.38;;;;;;;8.05;100.00;93155.91;2580211;23;20007;-84
2023/06/01 01:37:27;;;;;;;6.15;5.25;;;;;;;8.20;100.00;93157.22;2585322;22;20035;-87
2023/06/01 01:39:00;;;;;;;7.47;5.75;;;;;;;8.19;100.00;93153.06;2581378;22;20028;-84
2023/06/01 01:40:31;;;;;;;7.53;4.95;;;;;;;8.12;100.00;93161.16;2587326;22;20504;-85
2023/06/01 01:42:18;;;;;;;8.50;5.30;;;;;;;8.14;100.00;93152.75;2580305;23;20392;-85
2023/06/01 01:43:26;;;;;;;10.60;5.00;;;;;;;8.01;100.00;93157.84;2574556;23;20082;-82
2023/06/01 01:44:35;;;;;;;8.15;5.18;;;;;;;7.94;100.00;93157.91;2558503;23;20004;-86
2023/06/01 01:45:46;;;;;;;8.57;5.45;;;;;;;8.03;100.00;93152.88;2558896;23;20052;-86
2023/06/01 01:46:48;;;;;;;7.78;5.30;;;;;;;8.00;100.00;93151.75;2559762;23;20013;-87
2023/06/01 01:48:10;;;;;;;6.78;5.38;;;;;;;8.09;100.00;93148.63;2568364;22;20019;-85
2023/06/01 01:49:28;;;;;;;7.53;5.90;;;;;;;8.04;100.00;93152.47;2572296;23;20125;-86
2023/06/01 01:50:36;;;;;;;8.02;5.78;;;;;;;7.99;100.00;93147.59;2574881;22;20317;-85
2023/06/01 01:52:03;;;;;;;6.47;5.68;;;;;;;7.93;100.00;93143.84;2569543;23;20490;-85
2023/06/01 01:53:13;;;;;;;7.18;5.03;;;;;;;7.88;100.00;93151.53;2566729;23;20733;-86
2023/06/01 01:54:22;;;;;;;9.15;5.30;;;;;;;7.87;100.00;93150.78;2559382;23;20028;-83
2023/06/01 01:55:27;;;;;;;7.05;5.63;;;;;;;7.93;100.00;93143.09;2558815;23;20016;-84
2023/06/01 01:56:32;;;;;;;8.52;5.60;;;;;;;7.94;100.00;93147.25;2570434;22;20008;-83
2023/06/01 01:57:42;;;;;;;5.95;5.35;;;;;;;7.96;100.00;93143.06;2568650;23;20072;-85
2023/06/01 01:58:52;;;;;;;6.80;5.38;;;;;;;7.86;100.00;93143.16;2571333;22;20011;-86
2023/06/01 02:00:00;;;;;;;8.93;5.43;;;;;;;7.83;100.00;93148.16;2569451;23;20016;-84
2023/06/01 02:01:10;;;;;;;8.02;5.55;;;;;;;7.88;100.00;93151.53;2558344;23;20352;-85
2023/06/01 02:02:19;;;;;;;10.70;5.57;;;;;;;8.01;100.00;93150.59;2584174;22;20004;-86
2023/06/01 02:03:24;;;;;;;9.27;5.22;;;;;;;7.94;100.00;93149.94;2591074;22;20007;-85
2023/06/01 02:04:36;;;;;;;9.82;6.10;;;;;;;7.89;100.00;93148.47;2568170;23;20104;-87
2023/06/01 02:05:49;;;;;;;9.15;5.18;;;;;;;7.81;100.00;93147.03;2572217;22;20471;-86
2023/06/01 02:06:59;;;;;;;7.95;5.72;;;;;;;7.81;100.00;93144.34;2569839;23;20000;-85
2023/06/01 02:08:08;;;;;;;9.98;5.75;;;;;;;7.72;100.00;93150.16;2571996;22;20055;-85
2023/06/01 02:09:18;;;;;;;8.35;5.32;;;;;;;7.74;100.00;93149.78;2569038;23;20533;-85
2023/06/01 02:10:27;;;;;;;8.52;5.85;;;;;;;7.76;100.00;93144.81;2581742;22;20008;-85
2023/06/01 02:11:38;;;;;;;12.68;5.65;;;;;;;7.83;100.00;93142.06;2569618;23;20839;-85
2023/06/01 02:12:48;;;;;;;8.93;5.68;;;;;;;7.84;100.00;93148.91;2559410;23;20083;-87
2023/06/01 02:13:56;;;;;;;6.60;5.53;;;;;;;7.83;100.00;93142.06;2558631;23;20036;-84
2023/06/01 02:15:07;;;;;;;10.43;5.70;;;;;;;7.75;100.00;93146.72;2558266;23;20008;-86
2023/06/01 02:16:18;;;;;;;9.85;5.63;;;;;;;7.70;100.00;93151.72;2582918;22;20008;-85
2023/06/01 02:17:26;;;;;;;10.00;6.63;;;;;;;7.71;100.00;93148.66;2582624;22;20437;-83
2023/06/01 02:18:39;;;;;;;12.25;5.82;;;;;;;7.77;100.00;93143.63;2569550;23;20008;-86
2023/06/01 02:19:50;;;;;;;15.13;5.88;;;;;;;7.79;100.00;93139.44;2560117;23;20001;-85
2023/06/01 02:20:58;;;;;;;20.58;6.53;;;;;;;7.86;100.00;93143.16;2559087;23;20306;-86
2023/06/01 02:22:08;;;;;;;14.02;5.88;;;;;;;7.82;100.00;93137.91;2557984;23;20429;-85
2023/06/01 02:23:15;;;;;;;17.85;5.93;;;;;;;7.91;100.00;93140.09;2571451;22;20147;-86
2023/06/01 02:24:19;;;;;;;10.60;5.80;;;;;;;7.85;100.00;93137.09;2568760;23;20009;-86
2023/06/01 02:25:27;;;;;;;16.27;6.07;;;;;;;7.81;100.00;93136.38;2556502;23;20087;-85
2023/06/01 02:26:36;;;;;;;14.35;6.43;;;;;;;7.81;100.00;93134.50;2558392;23;20005;-84
2023/06/01 02:27:44;;;;;;;14.57;6.43;;;;;;;7.70;100.00;93143.72;2571092;22;20008;-84
2023/06/01 02:28:52;;;;;;;17.13;5.95;;;;;;;7.72;100.00;93139.50;2580249;23;20008;-86
2023/06/01 02:30:00;;;;;;;10.38;6.25;;;;;;;7.81;100.00;93141.69;2557940;23;20013;-87
2023/06/01 02:31:08;;;;;;;7.85;5.70;;;;;;;7.69;100.00;93145.66;2558168;23;20009;-85
2023/06/01 02:32:13;;;;;;;13.10;5.93;;;;;;;7.70;100.00;93146.41;2570499;22;20482;-86
2023/06/01 02:33:25;;;;;;;11.15;5.90;;;;;;;7.76;100.00;93137.56;2581176;22;20015;-86
2023/06/01 02:34:40;;;;;;;9.75;5.90;;;;;;;7.65;100.00;93141.50;2569906;23;20612;-84
2023/06/01 02:35:47;;;;;;;10.48;5.82;;;;;;;7.69;100.00;93137.66;2560963;23;20080;-83
2023/06/01 02:36:59;;;;;;;13.52;5.70;;;;;;;7.69;100.00;93147.56;2557527;23;20468;-86
2023/06/01 02:38:05;;;;;;;8.50;6.07;;;;;;;7.64;100.00;93148.75;2560252;23;20084;-84
2023/06/01 02:39:12;;;;;;;9.82;6.03;;;;;;;7.65;100.00;93144.91;2557851;23;20417;-85
2023/06/01 02:40:16;;;;;;;8.27;5.85;;;;;;;7.76;100.00;93144.81;2569734;22;20071;-84
2023/06/01 02:41:25;;;;;;;7.55;6.10;;;;;;;7.68;100.00;93141.47;2580524;22;20004;-85
2023/06/01 02:42:36;;;;;;;9.80;5.90;;;;;;;7.70;100.00;93144.50;2569424;23;20036;-87
2023/06/01 02:43:46;;;;;;;11.07;6.07;;;;;;;7.65;100.00;93142.25;2559133;23;20012;-85
2023/06/01 02:44:54;;;;;;;8.35;6.53;;;;;;;7.66;100.00;93143.00;2582234;22;20040;-86
2023/06/01 02:46:03;;;;;;;10.02;6.10;;;;;;;7.62;100.00;93137.72;2581514;22;20003;-84
2023/06/01 02:47:11;;;;;;;10.55;6.72;;;;;;;7.54;100.00;93136.28;2579713;23;20004;-84
2023/06/01 02:48:17;;;;;;;11.35;6.03;;;;;;;7.56;100.00;93142.72;2569274;23;20020;-85
2023/06/01 02:49:26;;;;;;;10.65;5.97;;;;;;;7.53;100.00;93142.75;2570028;22;20020;-84
2023/06/01 02:50:30;;;;;;;10.95;6.72;;;;;;;7.60;100.00;93141.94;2568488;23;20474;-85
2023/06/01 02:51:37;;;;;;;13.98;6.30;;;;;;;7.73;100.00;93140.28;2569267;22;20323;-85
2023/06/01 02:52:43;;;;;;;7.10;5.78;;;;;;;7.62;100.00;93136.97;2568863;23;20031;-86
2023/06/01 02:53:48;;;;;;;8.85;6.10;;;;;;;7.59;100.00;93138.50;2568859;23;20080;-84
2023/06/01 02:54:53;;;;;;;10.35;5.97;;;;;;;7.55;100.00;93137.78;2557492;23;20387;-85
2023/06/01 02:55:59;;;;;;;8.70;6.22;;;;;;;7.55;100.00;93135.13;2569012;22;20004;-84
2023/06/01 02:57:09;;;;;;;9.45;6.50;;;;;;;7.44;100.00;93137.91;2593181;22;20011;-84
2023/06/01 02:58:16;;;;;;;;;;;;;;;7.44;100.00;93143.22;2581389;22;20030;-84
2023/06/01 02:59:22;;;;;;;10.82;6.20;;;;;;;7.43;100.00;93136.41;2557929;23;19923;-83
2023/06/01 03:00:28;;;;;;;10.40;6.07;;;;;;;7.56;100.00;93140.06;2556705;23;20005;-85
2023/06/01 03:01:37;;;;;;;9.80;5.88;;;;;;;7.64;100.00;93142.63;2581368;22;20015;-83
2023/06/01 03:02:42;;;;;;;13.05;7.53;;;;;;;7.56;100.00;93141.97;2569052;23;20087;-86
2023/06/01 03:03:46;;;;;;;12.10;6.68;;;;;;;7.51;100.00;93134.44;2556732;23;20115;-84
2023/06/01 03:04:51;;;;;;;8.75;5.93;;;;;;;7.45;100.00;93136.75;2556956;23;20001;-86
2023/06/01 03:06:02;;;;;;;9.63;6.07;;;;;;;7.47;100.00;93142.44;2557015;23;20009;-86
2023/06/01 03:07:06;;;;;;;12.32;6.13;;;;;;;7.48;100.00;93140.53;2559887;23;20449;-85
2023/06/01 03:08:16;;;;;;;9.65;6.38;;;;;;;7.51;100.00;93140.50;2556727;23;20038;-85
2023/06/01 03:09:22;;;;;;;8.65;5.95;;;;;;;7.48;100.00;93143.19;2559105;23;20451;-85
2023/06/01 03:10:28;;;;;;;8.18;6.18;;;;;;;7.41;100.00;93140.59;2557059;23;20009;-87
2023/06/01 03:11:34;;;;;;;12.45;6.07;;;;;;;7.37;100.00;93140.63;2570085;22;20005;-83
2023/06/01 03:12:40;;;;;;;10.45;6.47;;;;;;;7.50;100.00;93138.97;2568659;23;20008;-86
2023/06/01 03:13:47;;;;;;;8.82;6.25;;;;;;;7.36;100.00;93139.13;2557681;23;20436;-85
2023/06/01 03:14:54;;;;;;;9.77;6.63;;;;;;;7.36;100.00;93136.47;2557877;23;20008;-84
2023/06/01 03:16:02;;;;;;;11.50;6.07;;;;;;;7.34;100.00;93132.69;2558445;23;20080;-85
2023/06/01 03:17:11;;;;;;;11.18;6.15;;;;;;;7.34;100.00;93136.09;2571329;22;20008;-85
2023/06/01 03:18:19;;;;;;;10.43;6.70;;;;;;;7.38;100.00;93134.19;2581016;23;20074;-83
2023/06/01 03:19:27;;;;;;;13.27;6.70;;;;;;;7.36;100.00;93139.13;2570251;23;20004;-86
2023/06/01 03:20:37;;;;;;;8.57;6.15;;;;;;;7.41;100.00;93137.94;2572585;22;20027;-84
2023/06/01 03:21:46;;;;;;;10.07;6.30;;;;;;;7.40;100.00;93125.78;2580411;23;20026;-85
2023/06/01 03:22:48;;;;;;;13.23;6.70;;;;;;;7.38;100.00;93142.16;2580939;23;20094;-85
2023/06/01 03:23:57;;;;;;;9.68;6.30;;;;;;;7.37;100.00;93139.88;2568991;22;20009;-86
2023/06/01 03:25:07;;;;;;;11.02;6.85;;;;;;;7.35;100.00;93136.84;2580869;23;20061;-84
2023/06/01 03:26:18;;;;;;;25.25;7.38;;;;;;;7.35;100.00;93137.63;2584644;22;20399;-84
2023/06/01 03:27:28;;;;;;;12.05;6.65;;;;;;;7.35;100.00;93136.84;2593210;22;20039;-86
2023/06/01 03:28:36;;;;;;;13.13;6.40;;;;;;;7.29;100.00;93141.84;2580833;23;20408;-84
2023/06/01 03:29:41;;;;;;;13.85;6.00;;;;;;;7.35;100.00;93139.53;2569842;23;20000;-87
2023/06/01 03:30:46;;;;;;;8.82;6.95;;;;;;;7.27;100.00;93136.16;2569984;22;20008;-84
2023/06/01 03:31:53;;;;;;;11.02;6.80;;;;;;;7.20;100.00;93134.34;2569294;23;20004;-84
2023/06/01 03:33:01;;;;;;;11.27;6.10;;;;;;;7.30;100.00;93136.13;2558144;23;20036;-84
2023/06/01 03:34:06;;;;;;;10.15;6.10;;;;;;;7.30;100.00;93135.38;2571565;22;20009;-85
2023/06/01 03:35:16;;;;;;;10.20;6.07;;;;;;;7.35;100.00;93137.63;2569535;23;20008;-84
2023/06/01 03:36:21;;;;;;;11.15;6.65;;;;;;;7.33;100.00;93134.56;2584472;22;20000;-84
2023/06/01 03:37:23;;;;;;;10.35;7.22;;;;;;;7.34;100.00;93138.75;2580888;23;20004;-84
2023/06/01 03:38:34;;;;;;;9.38;6.53;;;;;;;7.30;100.00;93135.38;2581335;22;20004;-84
2023/06/01 03:39:42;;;;;;;18.23;7.03;;;;;;;7.47;100.00;93142.44;2593437;22;20093;-86
2023/06/01 03:40:52;;;;;;;11.98;7.18;;;;;;;7.32;100.00;93133.81;2580443;23;20343;-84
2023/06/01 03:42:00;;;;;;;11.38;6.63;;;;;;;7.27;100.00;93141.47;2570697;23;20023;-85
2023/06/01 03:43:09;;;;;;;13.48;6.72;;;;;;;7.20;100.00;93146.84;2571102;22;20412;-85
2023/06/01 03:44:13;;;;;;;13.75;7.15;;;;;;;7.19;100.00;93140.78;2569358;23;20009;-83
2023/06/01 03:45:17;;;;;;;16.33;7.45;;;;;;;7.24;100.00;93142.25;2581724;22;20000;-83
2023/06/01 03:46:23;;;;;;;11.70;6.28;;;;;;;7.29;100.00;93144.50;2568809;23;20497;-87
2023/06/01 03:47:30;;;;;;;11.50;7.03;;;;;;;7.23;100.00;93148.72;2557907;23;20013;-83
2023/06/01 03:48:36;;;;;;;10.55;6.95;;;;;;;7.25;100.00;93147.19;2570948;22;20502;-86
2023/06/01 03:49:43;;;;;;;9.38;6.47;;;;;;;7.32;100.00;93151.69;2582173;22;20012;-85
2023/06/01 03:50:52;;;;;;;8.88;6.72;;;;;;;7.32;100.00;93155.09;2581740;22;20010;-85
2023/06/01 03:51:55;;;;;;;8.73;6.88;;;;;;;7.30;100.00;93151.34;2569423;23;20014;-84
2023/06/01 03:53:02;;;;;;;12.05;7.20;;;;;;;7.28;100.00;93153.63;2556520;23;20585;-85
2023/06/01 03:54:06;;;;;;;9.93;6.20;;;;;;;7.33;100.00;93150.53;2558473;23;20379;-87
2023/06/01 03:55:13;;;;;;;10.90;6.72;;;;;;;7.32;100.00;93160.41;2582026;22;20023;-86
2023/06/01 03:56:16;;;;;;;11.80;6.72;;;;;;;7.31;100.00;93161.56;2569633;23;20004;-86
2023/06/01 03:57:23;;;;;;;9.63;6.80;;;;;;;7.34;100.00;93157.38;2557218;23;20005;-85
2023/06/01 03:58:33;;;;;;;11.15;7.13;;;;;;;7.33;100.00;93155.84;2571069;22;20083;-87
2023/06/01 03:59:38;;;;;;;13.02;7.07;;;;;;;7.34;100.00;93157.38;2569963;23;20430;-84
2023/06/01 04:00:41;;;;;;;11.57;6.95;;;;;;;7.42;100.00;93150.84;2556124;23;20092;-85
2023/06/01 04:01:48;;;;;;;12.10;7.32;;;;;;;7.36;100.00;93154.31;2569074;23;20444;-86
2023/06/01 04:03:01;;;;;;;13.40;6.93;;;;;;;7.40;100.00;93161.13;2570787;22;20317;-87
2023/06/01 04:04:05;;;;;;;12.05;7.18;;;;;;;7.42;100.00;93155.38;2570779;23;20090;-86
2023/06/01 04:05:14;;;;;;;14.27;6.97;;;;;;;7.43;100.00;93154.25;2557273;23;20004;-84
2023/06/01 04:06:17;;;;;;;12.45;6.20;;;;;;;7.43;100.00;93160.34;2558993;23;20005;-86
2023/06/01 04:07:22;;;;;;;10.88;7.07;;;;;;;7.46;100.00;93156.91;2556702;23;20001;-86
2023/06/01 04:08:27;;;;;;;9.10;7.03;;;;;;;7.42;100.00;93158.81;2569924;22;20031;-82
2023/06/01 04:09:37;;;;;;;12.05;6.43;;;;;;;7.44;100.00;93155.78;2569337;23;20012;-83
2023/06/01 04:10:41;;;;;;;14.00;6.88;;;;;;;7.54;100.00;93160.97;2559241;23;20013;-85
2023/06/01 04:11:49;;;;;;;12.25;6.80;;;;;;;7.55;100.00;93156.41;2556723;23;20417;-85
2023/06/01 04:12:59;;;;;;;11.20;7.00;;;;;;;7.50;100.00;93157.59;2570687;22;20035;-83
2023/06/01 04:14:06;;;;;;;9.60;7.13;;;;;;;7.61;100.00;93164.72;2569716;23;20424;-83
2023/06/01 04:15:17;;;;;;;12.02;7.45;;;;;;;7.63;100.00;93165.06;2582530;22;20011;-84
2023/06/01 04:16:24;;;;;;;13.45;7.30;;;;;;;7.58;100.00;93164.34;2570315;23;20376;-86
2023/06/01 04:17:35;;;;;;;15.27;7.45;;;;;;;7.60;100.00;93158.66;2558767;23;20001;-84
2023/06/01 04:18:42;;;;;;;8.45;6.72;;;;;;;7.67;100.00;93163.91;2559856;23;20088;-86
2023/06/01 04:19:51;;;;;;;16.45;7.85;;;;;;;7.68;100.00;93169.97;2558342;23;20068;-86
2023/06/01 04:20:59;;;;;;;13.10;7.72;;;;;;;7.69;100.00;93166.19;2581844;22;20015;-86
2023/06/01 04:22:04;;;;;;;15.70;7.65;;;;;;;7.68;100.00;93169.97;2582260;22;20012;-82
2023/06/01 04:23:10;;;;;;;16.55;7.85;;;;;;;7.72;100.00;93168.78;2580035;23;20442;-84
2023/06/01 04:24:15;;;;;;;18.02;8.38;;;;;;;7.75;100.00;93169.91;2570656;22;20020;-86
2023/06/01 04:25:24;;;;;;;14.57;8.07;;;;;;;7.77;100.00;93164.94;2581703;22;20019;-86
2023/06/01 04:26:31;;;;;;;11.38;7.72;;;;;;;7.70;100.00;93168.44;2569641;23;20009;-85
2023/06/01 04:27:48;;;;;;;15.77;7.93;;;;;;;7.73;100.00;93158.91;2569001;23;20019;-85
2023/06/01 04:28:56;;;;;;;12.23;7.20;;;;;;;7.81;100.00;93169.09;2562342;23;20009;-86
2023/06/01 04:30:03;;;;;;;12.90;7.63;;;;;;;7.82;100.00;93172.50;2558399;23;20457;-87
2023/06/01 04:31:08;;;;;;;17.67;8.55;;;;;;;7.83;100.00;93169.44;2557366;23;20067;-84
2023/06/01 04:32:21;;;;;;;31.10;16.25;;;;;;;7.88;100.00;93170.16;2558108;23;20088;-82
2023/06/01 04:33:27;;;;;;;20.35;10.77;;;;;;;7.91;100.00;93167.47;2572902;22;20360;-86
2023/06/01 04:34:33;;;;;;;28.77;16.73;;;;;;;7.93;100.00;93167.81;2569268;23;20015;-87
2023/06/01 04:35:39;;;;;;;24.35;12.23;;;;;;;7.93;100.00;93172.38;2558358;23;20088;-87
2023/06/01 04:36:44;;;;;;;18.08;9.15;;;;;;;7.96;100.00;93175.00;2557851;23;20001;-84
2023/06/01 04:41:53;;;;;;;16.27;8.38;;;;;;;8.08;100.00;93173.75;2574835;23;20055;-83
2023/06/01 04:43:58;;;;;;;12.82;7.65;;;;;;;8.13;100.00;93170.63;2563381;23;20005;-85
2023/06/01 04:45:30;;;;;;;;;;;;;;;;;;;;;
2023/06/01 04:47:03;;;;;;;13.57;7.85;;;;;;;8.26;100.00;93174.28;2564053;23;20008;-84
2023/06/01 04:48:37;;;;;;;14.45;7.70;;;;;;;8.32;100.00;93178.00;2545403;23;20019;-84
2023/06/01 04:49:56;;;;;;;21.30;8.73;;;;;;;8.36;100.00;93164.66;2554184;23;20048;-85
2023/06/01 04:51:19;;;;;;;14.82;8.60;;;;;;;8.40;100.00;93161.97;2542532;23;20013;-84
2023/06/01 04:52:49;;;;;;;20.10;8.38;;;;;;;8.46;100.00;93168.34;2547395;23;20016;-86
2023/06/01 04:54:18;;;;;;;16.20;7.82;;;;;;;8.50;100.00;93166.41;2536401;23;20051;-84
2023/06/01 04:55:48;;;;;;;17.63;9.23;;;;;;;8.57;100.00;93158.31;2551385;23;20095;-87
2023/06/01 04:56:53;;;;;;;18.52;8.63;;;;;;;8.62;100.00;93167.78;2538761;23;20470;-84
2023/06/01 04:57:59;;;;;;;22.85;9.18;;;;;;;8.63;100.00;93171.94;2543342;23;20116;-88
2023/06/01 04:59:12;;;;;;;18.33;8.70;;;;;;;8.67;100.00;93168.06;2554474;23;20015;-84
2023/06/01 05:00:18;;;;;;;15.98;8.27;;;;;;;8.73;100.00;93171.78;2583843;22;20401;-83
2023/06/01 05:01:30;;;;;;;21.38;8.63;;;;;;;8.75;100.00;93168.75;2577981;23;20446;-85
2023/06/01 05:02:40;;;;;;;23.02;9.02;;;;;;;8.78;100.00;93163.38;2557517;23;20009;-84
2023/06/01 05:03:49;;;;;;;19.27;8.88;;;;;;;8.83;100.00;93167.47;2568721;22;20088;-86
2023/06/01 05:04:55;;;;;;;21.47;9.93;;;;;;;8.90;100.00;93170.03;2566991;23;20419;-86
2023/06/01 05:05:58;;;;;;;13.85;9.02;;;;;;;8.93;100.00;93166.56;2554522;23;20439;-86
2023/06/01 05:07:00;;;;;;;19.42;9.32;;;;;;;8.96;100.00;93165.78;2554376;23;20005;-83
2023/06/01 05:08:04;;;;;;;18.50;9.32;;;;;;;9.02;100.00;93168.72;2553618;23;20440;-85
2023/06/01 05:09:06;;;;;;;21.40;9.65;;;;;;;9.06;100.00;93161.44;2554944;23;20075;-85
2023/06/01 05:10:09;;;;;;;23.02;10.00;;;;;;;9.08;100.00;93170.50;2553746;23;20542;-87
2023/06/01 05:11:10;;;;;;;19.60;9.35;;;;;;;9.13;100.00;93165.88;2553261;23;20009;-84
2023/06/01 05:12:12;;;;;;;21.58;9.60;;;;;;;9.23;100.00;93157.72;2565938;22;20087;-84
2023/06/01 05:13:13;;;;;;;15.85;9.25;;;;;;;9.26;100.00;93164.94;2565559;23;20008;-82
2023/06/01 05:14:14;;;;;;;15.15;9.20;;;;;;;9.29;100.00;93163.34;2565627;22;20529;-84
2023/06/01 05:15:16;;;;;;;15.57;9.38;;;;;;;9.32;100.00;93165.22;2565622;23;20005;-84
2023/06/01 05:16:17;;;;;;;17.27;9.60;;;;;;;9.38;100.00;93166.25;2566288;22;20001;-84
2023/06/01 05:17:19;;;;;;;17.95;9.85;;;;;;;9.43;100.00;93163.09;2565913;23;20055;-83
2023/06/01 05:18:21;;;;;;;16.65;10.02;;;;;;;9.51;100.00;93163.75;2578406;22;20015;-83
2023/06/01 05:19:22;;;;;;;21.35;10.30;;;;;;;9.54;100.00;93163.69;2565779;23;20008;-84
2023/06/01 05:20:25;;;;;;;21.77;10.70;;;;;;;9.61;100.00;93164.72;2553333;23;20020;-86
2023/06/01 05:21:26;;;;;;;23.27;10.45;;;;;;;9.66;100.00;93161.59;2566141;22;20020;-85
2023/06/01 05:22:27;;;;;;;15.50;9.98;;;;;;;9.70;100.00;93157.72;2578348;22;20078;-86
2023/06/01 05:23:31;;;;;;;18.70;9.85;;;;;;;9.79;100.00;93163.28;2565622;23;20343;-84
2023/06/01 05:24:32;;;;;;;17.08;9.45;;;;;;;9.87;100.00;93168.47;2566734;22;20286;-85
2023/06/01 05:25:33;;;;;;;14.48;8.98;;;;;;;10.03;100.00;93169.31;2566199;23;20008;-85
2023/06/01 05:26:35;;;;;;;15.02;8.60;;;;;;;10.14;100.00;93163.78;2578794;22;20450;-87
2023/06/01 05:27:38;;;;;;;17.77;8.93;;;;;;;10.21;100.00;93160.19;2568149;23;20063;-86
2023/06/01 05:28:39;;;;;;;21.50;8.98;;;;;;;10.32;100.00;93166.13;2567774;22;20004;-84
2023/06/01 05:29:40;;;;;;;19.13;8.40;;;;;;;10.50;100.00;93161.16;2565929;23;20028;-86
2023/06/01 05:30:41;;;;;;;19.55;8.40;;;;;;;10.86;100.00;93162.31;2552890;23;20115;-87
2023/06/01 05:31:42;;;;;;;15.57;7.38;;;;;;;10.96;100.00;93164.75;2565019;22;20011;-85
2023/06/01 05:32:43;;;;;;;14.40;8.10;;;;;;;11.00;100.00;93165.41;2578292;22;20027;-85